createdAt,value
2024-03-16T00:00:54.703Z,98.54
2024-03-16T00:02:56.490Z,98.45
2024-03-16T00:04:58.186Z,98.55
2024-03-16T00:06:59.954Z,98.91
2024-03-16T00:09:01.688Z,100.00
2024-03-16T00:11:03.503Z,100.00
2024-03-16T00:13:05.323Z,100.00
2024-03-16T00:15:07.309Z,100.00
2024-03-16T00:17:09.000Z,100.00
2024-03-16T00:19:10.742Z,100.00
2024-03-16T00:21:12.468Z,100.00
2024-03-16T00:23:14.153Z,100.00
2024-03-16T00:25:16.079Z,100.00
2024-03-16T00:27:17.840Z,100.00
2024-03-16T00:29:19.509Z,100.00
2024-03-16T00:31:21.222Z,100.00
2024-03-16T00:33:23.003Z,100.00
2024-03-16T00:35:24.803Z,100.00
2024-03-16T00:37:26.475Z,100.00
2024-03-16T00:39:28.170Z,100.00
2024-03-16T00:41:29.913Z,100.00
2024-03-16T00:43:31.625Z,99.39
2024-03-16T00:45:33.444Z,100.00
2024-03-16T00:47:35.199Z,99.48
2024-03-16T00:49:36.853Z,99.99
2024-03-16T00:51:38.580Z,99.85
2024-03-16T00:53:40.325Z,98.82
2024-03-16T00:55:42.016Z,98.66
2024-03-16T00:57:43.823Z,99.21
2024-03-16T00:59:45.514Z,98.74
2024-03-16T01:01:47.215Z,99.51
2024-03-16T01:03:48.884Z,99.60
2024-03-16T01:05:52.025Z,100.00
2024-03-16T01:07:53.735Z,100.00
2024-03-16T01:09:55.421Z,100.00
2024-03-16T01:11:57.131Z,100.00
2024-03-16T01:13:58.813Z,100.00
2024-03-16T01:16:00.548Z,100.00
2024-03-16T01:18:02.307Z,100.00
2024-03-16T01:20:04.234Z,100.00
2024-03-16T01:22:06.025Z,100.00
2024-03-16T01:24:07.717Z,100.00
2024-03-16T01:26:09.363Z,100.00
2024-03-16T01:28:11.109Z,100.00
2024-03-16T01:30:12.857Z,100.00
2024-03-16T01:32:14.568Z,100.00
2024-03-16T01:34:16.272Z,100.00
2024-03-16T01:36:17.962Z,100.00
2024-03-16T01:38:19.611Z,100.00
2024-03-16T01:40:21.269Z,100.00
2024-03-16T01:42:22.960Z,100.00
2024-03-16T01:44:24.605Z,100.00
2024-03-16T01:46:26.289Z,100.00
2024-03-16T01:48:27.990Z,100.00
2024-03-16T01:50:29.655Z,100.00
2024-03-16T01:52:31.305Z,100.00
2024-03-16T01:54:33.068Z,100.00
2024-03-16T01:56:34.730Z,100.00
2024-03-16T01:58:36.855Z,100.00
2024-03-16T02:00:38.661Z,100.00
2024-03-16T02:02:40.610Z,100.00
2024-03-16T02:04:42.413Z,100.00
2024-03-16T02:06:44.102Z,100.00
2024-03-16T02:08:45.742Z,100.00
2024-03-16T02:10:47.495Z,100.00
2024-03-16T02:12:49.358Z,100.00
2024-03-16T02:14:51.041Z,100.00
2024-03-16T02:16:52.704Z,100.00
2024-03-16T02:18:54.377Z,100.00
2024-03-16T02:20:56.032Z,100.00
2024-03-16T02:22:57.735Z,100.00
2024-03-16T02:24:59.458Z,100.00
2024-03-16T02:27:01.224Z,100.00
2024-03-16T02:29:02.865Z,100.00
2024-03-16T02:31:04.616Z,100.00
2024-03-16T02:33:06.359Z,100.00
2024-03-16T02:35:08.172Z,100.00
2024-03-16T02:37:09.925Z,100.00
2024-03-16T02:39:11.649Z,100.00
2024-03-16T02:41:13.510Z,100.00
2024-03-16T02:43:15.198Z,100.00
2024-03-16T02:45:16.874Z,100.00
2024-03-16T02:47:18.554Z,100.00
2024-03-16T02:49:20.188Z,100.00
2024-03-16T02:51:21.872Z,100.00
2024-03-16T02:53:23.579Z,100.00
2024-03-16T02:55:25.223Z,100.00
2024-03-16T02:57:26.960Z,100.00
2024-03-16T02:59:28.627Z,100.00
2024-03-16T03:01:30.432Z,100.00
2024-03-16T03:03:32.140Z,100.00
2024-03-16T03:05:33.847Z,100.00
2024-03-16T03:07:35.511Z,100.00
2024-03-16T03:09:37.232Z,100.00
2024-03-16T03:11:39.312Z,100.00
2024-03-16T03:13:41.657Z,100.00
2024-03-16T03:15:43.388Z,100.00
2024-03-16T03:17:45.105Z,100.00
2024-03-16T03:19:46.774Z,100.00
2024-03-16T03:21:48.462Z,100.00
2024-03-16T03:23:50.214Z,100.00
2024-03-16T03:25:51.855Z,100.00
2024-03-16T03:27:53.561Z,100.00
2024-03-16T03:29:55.621Z,100.00
2024-03-16T03:31:57.355Z,100.00
2024-03-16T03:33:59.098Z,100.00
2024-03-16T03:36:00.778Z,100.00
2024-03-16T03:38:03.090Z,100.00
2024-03-16T03:40:05.265Z,100.00
2024-03-16T03:42:07.130Z,100.00
2024-03-16T03:44:08.777Z,100.00
2024-03-16T03:46:10.477Z,100.00
2024-03-16T03:48:12.270Z,100.00
2024-03-16T03:50:13.953Z,100.00
2024-03-16T03:52:15.719Z,100.00
2024-03-16T03:54:17.490Z,100.00
2024-03-16T03:56:20.353Z,100.00
2024-03-16T03:58:22.078Z,100.00
2024-03-16T04:00:23.907Z,100.00
2024-03-16T04:02:25.555Z,100.00
2024-03-16T04:04:27.290Z,100.00
2024-03-16T04:06:29.011Z,100.00
2024-03-16T04:08:30.739Z,100.00
2024-03-16T04:10:32.414Z,100.00
2024-03-16T04:12:34.196Z,100.00
2024-03-16T04:14:35.866Z,100.00
2024-03-16T04:16:37.578Z,100.00
2024-03-16T04:18:39.302Z,100.00
2024-03-16T04:20:41.039Z,100.00
2024-03-16T04:22:42.721Z,100.00
2024-03-16T04:24:44.423Z,100.00
2024-03-16T04:26:46.168Z,100.00
2024-03-16T04:28:47.833Z,100.00
2024-03-16T04:30:49.501Z,100.00
2024-03-16T04:32:51.203Z,100.00
2024-03-16T04:34:52.890Z,100.00
2024-03-16T04:36:54.575Z,100.00
2024-03-16T04:38:56.325Z,100.00
2024-03-16T04:40:58.013Z,100.00
2024-03-16T04:42:59.664Z,100.00
2024-03-16T04:45:01.378Z,100.00
2024-03-16T04:47:03.134Z,100.00
2024-03-16T04:49:04.980Z,100.00
2024-03-16T04:51:06.724Z,100.00
2024-03-16T04:53:08.385Z,100.00
2024-03-16T04:55:10.145Z,100.00
2024-03-16T04:57:12.008Z,100.00
2024-03-16T04:59:13.660Z,100.00
2024-03-16T05:01:15.384Z,100.00
2024-03-16T05:03:17.107Z,100.00
2024-03-16T05:05:18.751Z,100.00
2024-03-16T05:07:20.437Z,100.00
2024-03-16T05:09:22.143Z,100.00
2024-03-16T05:11:23.887Z,100.00
2024-03-16T05:13:25.586Z,100.00
2024-03-16T05:15:27.281Z,100.00
2024-03-16T05:17:28.991Z,100.00
2024-03-16T05:19:30.737Z,100.00
2024-03-16T05:21:32.419Z,100.00
2024-03-16T05:23:34.097Z,100.00
2024-03-16T05:25:35.909Z,100.00
2024-03-16T05:27:37.645Z,100.00
2024-03-16T05:29:39.414Z,100.00
2024-03-16T05:31:41.083Z,100.00
2024-03-16T05:33:42.755Z,100.00
2024-03-16T05:35:44.438Z,100.00
2024-03-16T05:37:46.093Z,100.00
2024-03-16T05:39:47.722Z,100.00
2024-03-16T05:41:49.515Z,100.00
2024-03-16T05:43:51.240Z,100.00
2024-03-16T05:45:52.969Z,100.00
2024-03-16T05:47:54.720Z,100.00
2024-03-16T05:49:56.413Z,100.00
2024-03-16T05:51:58.102Z,100.00
2024-03-16T05:53:59.791Z,100.00
2024-03-16T05:56:01.436Z,100.00
2024-03-16T05:58:03.163Z,100.00
2024-03-16T06:00:05.444Z,100.00
2024-03-16T06:02:07.185Z,100.00
2024-03-16T06:04:08.995Z,100.00
2024-03-16T06:06:10.717Z,100.00
2024-03-16T06:08:12.354Z,100.00
2024-03-16T06:10:14.158Z,100.00
2024-03-16T06:12:15.892Z,100.00
2024-03-16T06:14:17.557Z,100.00
2024-03-16T06:16:19.305Z,100.00
2024-03-16T06:18:20.988Z,100.00
2024-03-16T06:20:25.131Z,100.00
2024-03-16T06:22:26.968Z,100.00
2024-03-16T06:24:28.646Z,100.00
2024-03-16T06:26:30.411Z,100.00
2024-03-16T06:28:32.057Z,100.00
2024-03-16T06:30:33.783Z,100.00
2024-03-16T06:32:35.631Z,100.00
2024-03-16T06:34:37.405Z,100.00
2024-03-16T06:36:39.202Z,100.00
2024-03-16T06:38:40.889Z,100.00
2024-03-16T06:40:42.577Z,100.00
2024-03-16T06:42:44.409Z,100.00
2024-03-16T06:44:46.111Z,100.00
2024-03-16T06:46:47.769Z,100.00
2024-03-16T06:48:49.937Z,100.00
2024-03-16T06:50:51.921Z,100.00
2024-03-16T06:52:53.589Z,100.00
2024-03-16T06:54:55.319Z,100.00
2024-03-16T06:56:57.002Z,100.00
2024-03-16T06:58:58.696Z,100.00
2024-03-16T07:01:00.489Z,100.00
2024-03-16T07:03:02.162Z,100.00
2024-03-16T07:05:04.086Z,100.00
2024-03-16T07:07:05.767Z,100.00
2024-03-16T07:09:07.439Z,100.00
2024-03-16T07:11:09.098Z,100.00
2024-03-16T07:13:10.863Z,100.00
2024-03-16T07:15:12.550Z,100.00
2024-03-16T07:17:14.273Z,100.00
2024-03-16T07:19:16.079Z,100.00
2024-03-16T07:21:17.888Z,100.00
2024-03-16T07:23:19.585Z,100.00
2024-03-16T07:25:21.365Z,100.00
2024-03-16T07:27:23.092Z,100.00
2024-03-16T07:29:24.782Z,100.00
2024-03-16T07:31:26.617Z,100.00
2024-03-16T07:33:28.329Z,100.00
2024-03-16T07:35:29.974Z,100.00
2024-03-16T07:37:31.620Z,100.00
2024-03-16T07:39:33.297Z,100.00
2024-03-16T07:41:34.986Z,100.00
2024-03-16T07:43:36.642Z,100.00
2024-03-16T07:45:38.337Z,100.00
2024-03-16T07:47:40.022Z,100.00
2024-03-16T07:49:41.663Z,100.00
2024-03-16T07:51:43.349Z,100.00
2024-03-16T07:53:45.060Z,100.00
2024-03-16T07:55:46.701Z,100.00
2024-03-16T07:57:48.468Z,100.00
2024-03-16T07:59:50.187Z,100.00
2024-03-16T08:01:51.871Z,100.00
2024-03-16T08:03:53.616Z,100.00
2024-03-16T08:05:55.314Z,100.00
2024-03-16T08:07:56.976Z,100.00
2024-03-16T08:09:58.632Z,100.00
2024-03-16T08:12:00.363Z,100.00
2024-03-16T08:14:02.023Z,100.00
2024-03-16T08:16:04.083Z,100.00
2024-03-16T08:18:05.933Z,100.00
2024-03-16T08:20:08.190Z,100.00
2024-03-16T08:22:09.975Z,100.00
2024-03-16T08:24:11.734Z,100.00
2024-03-16T08:26:13.451Z,100.00
2024-03-16T08:28:15.222Z,100.00
2024-03-16T08:30:16.902Z,100.00
2024-03-16T08:32:18.599Z,100.00
2024-03-16T08:34:20.364Z,100.00
2024-03-16T08:36:22.121Z,100.00
2024-03-16T08:38:23.778Z,100.00
2024-03-16T08:40:25.518Z,100.00
2024-03-16T08:42:27.207Z,100.00
2024-03-16T08:44:28.911Z,100.00
2024-03-16T08:46:30.699Z,100.00
2024-03-16T08:48:32.596Z,100.00
2024-03-16T08:50:34.316Z,100.00
2024-03-16T08:52:38.297Z,100.00
2024-03-16T08:54:40.669Z,100.00
2024-03-16T08:56:42.448Z,100.00
2024-03-16T08:58:47.069Z,100.00
2024-03-16T09:00:49.270Z,100.00
2024-03-16T09:02:51.008Z,100.00
2024-03-16T09:04:52.802Z,100.00
2024-03-16T09:06:54.641Z,100.00
2024-03-16T09:08:56.438Z,100.00
2024-03-16T09:10:58.109Z,100.00
2024-03-16T09:12:59.799Z,100.00
2024-03-16T09:15:01.545Z,100.00
2024-03-16T09:20:02.860Z,100.00
2024-03-16T09:22:04.941Z,100.00
2024-03-16T09:24:07.011Z,100.00
2024-03-16T09:26:08.701Z,100.00
2024-03-16T09:28:10.431Z,100.00
2024-03-16T09:30:12.355Z,100.00
2024-03-16T09:32:14.230Z,100.00
2024-03-16T09:34:16.022Z,100.00
2024-03-16T09:36:17.729Z,100.00
2024-03-16T09:38:19.394Z,100.00
2024-03-16T09:40:21.211Z,100.00
2024-03-16T09:42:22.964Z,100.00
